sensor_id;sensor_type;location;lat;lon;timestamp;pressure;altitude;pressure_sealevel;temperature;humidity
6032;BME280;3044;43.232;27.972;2023-05-18T00:01:08;45106.19;;;-143.84;73.36
6032;BME280;3044;43.232;27.972;2023-05-18T00:03:37;45121.44;;;-143.84;73.96
6032;BME280;3044;43.232;27.972;2023-05-18T00:06:06;45083.34;;;-143.84;77.10
6032;BME280;3044;43.232;27.972;2023-05-18T00:08:33;45026.22;;;-143.84;80.19
6032;BME280;3044;43.232;27.972;2023-05-18T00:11:00;45045.25;;;-143.84;80.01
6032;BME280;3044;43.232;27.972;2023-05-18T00:13:28;44991.94;;;-143.84;80.50
6032;BME280;3044;43.232;27.972;2023-05-18T00:15:55;44999.56;;;-143.84;80.46
6032;BME280;3044;43.232;27.972;2023-05-18T00:18:23;45012.88;;;-143.84;80.42
6032;BME280;3044;43.232;27.972;2023-05-18T00:20:51;45018.59;;;-143.84;80.66
6032;BME280;3044;43.232;27.972;2023-05-18T00:23:25;45012.88;;;-143.84;80.99
6032;BME280;3044;43.232;27.972;2023-05-18T00:25:55;44976.72;;;-143.84;81.09
6032;BME280;3044;43.232;27.972;2023-05-18T00:28:23;44965.28;;;-143.84;81.59
6032;BME280;3044;43.232;27.972;2023-05-18T00:30:50;45010.97;;;-143.84;81.40
6032;BME280;3044;43.232;27.972;2023-05-18T00:33:17;44995.75;;;-143.84;81.50
6032;BME280;3044;43.232;27.972;2023-05-18T00:35:44;44961.47;;;-143.84;81.84
6032;BME280;3044;43.232;27.972;2023-05-18T00:38:12;44969.09;;;-143.84;82.16
6032;BME280;3044;43.232;27.972;2023-05-18T00:40:42;44948.16;;;-143.84;82.51
6032;BME280;3044;43.232;27.972;2023-05-18T00:43:09;44963.38;;;-143.84;82.41
6032;BME280;3044;43.232;27.972;2023-05-18T00:45:36;44959.56;;;-143.84;82.22
6032;BME280;3044;43.232;27.972;2023-05-18T00:48:04;44965.28;;;-143.84;82.21
6032;BME280;3044;43.232;27.972;2023-05-18T00:50:31;44955.75;;;-143.84;82.27
6032;BME280;3044;43.232;27.972;2023-05-18T00:52:58;44974.81;;;-143.84;82.13
6032;BME280;3044;43.232;27.972;2023-05-18T00:55:26;44932.91;;;-143.84;82.24
6032;BME280;3044;43.232;27.972;2023-05-18T00:57:55;44963.38;;;-143.84;82.21
6032;BME280;3044;43.232;27.972;2023-05-18T01:00:23;44984.31;;;-143.84;81.98
6032;BME280;3044;43.232;27.972;2023-05-18T01:02:51;44986.22;;;-143.84;81.87
6032;BME280;3044;43.232;27.972;2023-05-18T01:05:18;44993.84;;;-143.84;81.63
6032;BME280;3044;43.232;27.972;2023-05-18T01:07:46;44955.75;;;-143.84;81.50
6032;BME280;3044;43.232;27.972;2023-05-18T01:10:16;45016.69;;;-143.84;81.15
6032;BME280;3044;43.232;27.972;2023-05-18T01:12:48;45001.47;;;-143.84;80.91
6032;BME280;3044;43.232;27.972;2023-05-18T01:15:19;45020.50;;;-143.84;81.07
6032;BME280;3044;43.232;27.972;2023-05-18T01:18:00;45009.09;;;-143.84;81.08
6032;BME280;3044;43.232;27.972;2023-05-18T01:20:36;45003.38;;;-143.84;80.82
6032;BME280;3044;43.232;27.972;2023-05-18T01:23:29;45028.13;;;-143.84;80.77
6032;BME280;3044;43.232;27.972;2023-05-18T01:26:13;45045.25;;;-143.84;80.71
6032;BME280;3044;43.232;27.972;2023-05-18T01:28:43;45009.09;;;-143.84;80.68
6032;BME280;3044;43.232;27.972;2023-05-18T01:31:11;45039.53;;;-143.84;80.30
6032;BME280;3044;43.232;27.972;2023-05-18T01:33:38;45039.53;;;-143.84;80.17
6032;BME280;3044;43.232;27.972;2023-05-18T01:36:06;45030.03;;;-143.84;80.21
6032;BME280;3044;43.232;27.972;2023-05-18T01:38:34;45020.50;;;-143.84;80.20
6032;BME280;3044;43.232;27.972;2023-05-18T01:41:06;45033.84;;;-143.84;80.19
6032;BME280;3044;43.232;27.972;2023-05-18T01:43:43;45047.16;;;-143.84;79.85
6032;BME280;3044;43.232;27.972;2023-05-18T01:46:19;45066.22;;;-143.84;80.06
6032;BME280;3044;43.232;27.972;2023-05-18T01:48:53;44999.56;;;-143.84;80.12
6032;BME280;3044;43.232;27.972;2023-05-18T01:51:23;45047.16;;;-143.84;80.08
6032;BME280;3044;43.232;27.972;2023-05-18T01:53:58;45049.06;;;-143.84;80.04
6032;BME280;3044;43.232;27.972;2023-05-18T01:56:26;45066.22;;;-143.84;79.79
6032;BME280;3044;43.232;27.972;2023-05-18T01:58:56;45054.78;;;-143.84;79.74
6032;BME280;3044;43.232;27.972;2023-05-18T02:01:24;45047.16;;;-143.84;79.72
6032;BME280;3044;43.232;27.972;2023-05-18T02:03:51;45041.44;;;-143.84;79.73
6032;BME280;3044;43.232;27.972;2023-05-18T02:06:18;45028.13;;;-143.84;79.52
6032;BME280;3044;43.232;27.972;2023-05-18T02:08:45;45045.25;;;-143.84;79.50
6032;BME280;3044;43.232;27.972;2023-05-18T02:11:12;45056.69;;;-143.84;79.38
6032;BME280;3044;43.232;27.972;2023-05-18T02:13:39;45054.78;;;-143.84;79.27
6032;BME280;3044;43.232;27.972;2023-05-18T02:16:08;45070.00;;;-143.84;79.19
6032;BME280;3044;43.232;27.972;2023-05-18T02:18:36;45102.38;;;-143.84;78.89
6032;BME280;3044;43.232;27.972;2023-05-18T02:21:03;45056.69;;;-143.84;78.76
6032;BME280;3044;43.232;27.972;2023-05-18T02:23:30;45054.78;;;-143.84;78.65
6032;BME280;3044;43.232;27.972;2023-05-18T02:25:58;45075.72;;;-143.84;78.42
6032;BME280;3044;43.232;27.972;2023-05-18T02:28:25;45049.06;;;-143.84;78.39
6032;BME280;3044;43.232;27.972;2023-05-18T02:30:52;45075.72;;;-143.84;78.11
6032;BME280;3044;43.232;27.972;2023-05-18T02:33:21;45064.31;;;-143.84;78.20
6032;BME280;3044;43.232;27.972;2023-05-18T02:35:51;45050.97;;;-143.84;78.37
6032;BME280;3044;43.232;27.972;2023-05-18T02:38:18;45064.31;;;-143.84;78.27
6032;BME280;3044;43.232;27.972;2023-05-18T02:40:46;45049.06;;;-143.84;78.11
6032;BME280;3044;43.232;27.972;2023-05-18T02:43:13;45070.00;;;-143.84;78.27
6032;BME280;3044;43.232;27.972;2023-05-18T02:45:40;45079.53;;;-143.84;78.17
6032;BME280;3044;43.232;27.972;2023-05-18T02:48:08;45094.78;;;-143.84;78.21
6032;BME280;3044;43.232;27.972;2023-05-18T02:50:36;45073.81;;;-143.84;78.23
6032;BME280;3044;43.232;27.972;2023-05-18T02:53:03;45070.00;;;-143.84;78.18
6032;BME280;3044;43.232;27.972;2023-05-18T02:55:31;45054.78;;;-143.84;78.11
6032;BME280;3044;43.232;27.972;2023-05-18T02:57:58;45071.91;;;-143.84;78.17
6032;BME280;3044;43.232;27.972;2023-05-18T03:00:26;45087.16;;;-143.84;78.10
6032;BME280;3044;43.232;27.972;2023-05-18T03:02:55;45068.13;;;-143.84;77.71
6032;BME280;3044;43.232;27.972;2023-05-18T03:05:24;45068.13;;;-143.84;77.75
6032;BME280;3044;43.232;27.972;2023-05-18T03:07:53;45052.88;;;-143.84;77.63
6032;BME280;3044;43.232;27.972;2023-05-18T03:10:20;45100.47;;;-143.84;77.21
6032;BME280;3044;43.232;27.972;2023-05-18T03:12:48;45094.78;;;-143.84;77.16
6032;BME280;3044;43.232;27.972;2023-05-18T03:15:15;45117.63;;;-143.84;76.71
6032;BME280;3044;43.232;27.972;2023-05-18T03:17:42;45096.66;;;-143.84;76.82
6032;BME280;3044;43.232;27.972;2023-05-18T03:20:10;45073.81;;;-143.84;76.84
6032;BME280;3044;43.232;27.972;2023-05-18T03:22:39;45089.06;;;-143.84;76.74
6032;BME280;3044;43.232;27.972;2023-05-18T03:25:08;45102.38;;;-143.84;76.27
6032;BME280;3044;43.232;27.972;2023-05-18T03:27:35;45092.88;;;-143.84;76.32
6032;BME280;3044;43.232;27.972;2023-05-18T03:30:03;45098.56;;;-143.84;76.15
6032;BME280;3044;43.232;27.972;2023-05-18T03:32:30;45089.06;;;-143.84;76.35
6032;BME280;3044;43.232;27.972;2023-05-18T03:34:58;45106.19;;;-143.84;76.14
6032;BME280;3044;43.232;27.972;2023-05-18T03:37:26;45079.53;;;-143.84;76.11
6032;BME280;3044;43.232;27.972;2023-05-18T03:39:58;45096.66;;;-143.84;76.00
6032;BME280;3044;43.232;27.972;2023-05-18T03:42:27;45089.06;;;-143.84;76.44
6032;BME280;3044;43.232;27.972;2023-05-18T03:44:54;45079.53;;;-143.84;75.77
6032;BME280;3044;43.232;27.972;2023-05-18T03:47:21;45083.34;;;-143.84;76.25
6032;BME280;3044;43.232;27.972;2023-05-18T03:49:48;45087.16;;;-143.84;76.03
6032;BME280;3044;43.232;27.972;2023-05-18T03:52:15;45100.47;;;-143.84;76.18
6032;BME280;3044;43.232;27.972;2023-05-18T03:54:47;45068.13;;;-143.84;76.78
6032;BME280;3044;43.232;27.972;2023-05-18T03:57:15;45064.31;;;-143.84;76.89
6032;BME280;3044;43.232;27.972;2023-05-18T03:59:44;45113.81;;;-143.84;77.03
6032;BME280;3044;43.232;27.972;2023-05-18T04:02:11;45087.16;;;-143.84;77.21
6032;BME280;3044;43.232;27.972;2023-05-18T04:04:41;45077.63;;;-143.84;77.46
6032;BME280;3044;43.232;27.972;2023-05-18T04:07:10;45089.06;;;-143.84;77.32
6032;BME280;3044;43.232;27.972;2023-05-18T04:09:38;45081.44;;;-143.84;77.48
6032;BME280;3044;43.232;27.972;2023-05-18T04:12:06;45085.25;;;-143.84;77.84
6032;BME280;3044;43.232;27.972;2023-05-18T04:14:33;45083.34;;;-143.84;78.17
6032;BME280;3044;43.232;27.972;2023-05-18T04:17:02;45049.06;;;-143.84;78.46
6032;BME280;3044;43.232;27.972;2023-05-18T04:19:31;45071.91;;;-143.84;78.91
6032;BME280;3044;43.232;27.972;2023-05-18T04:21:58;45047.16;;;-143.84;79.12
6032;BME280;3044;43.232;27.972;2023-05-18T04:24:25;45047.16;;;-143.84;79.21
6032;BME280;3044;43.232;27.972;2023-05-18T04:26:52;45045.25;;;-143.84;79.42
6032;BME280;3044;43.232;27.972;2023-05-18T04:29:20;45028.13;;;-143.84;79.31
6032;BME280;3044;43.232;27.972;2023-05-18T04:31:47;45043.34;;;-143.84;79.52
6032;BME280;3044;43.232;27.972;2023-05-18T04:34:16;45041.44;;;-143.84;79.56
6032;BME280;3044;43.232;27.972;2023-05-18T04:36:43;45010.97;;;-143.84;79.31
6032;BME280;3044;43.232;27.972;2023-05-18T04:39:10;45026.22;;;-143.84;78.96
6032;BME280;3044;43.232;27.972;2023-05-18T04:41:38;45047.16;;;-143.84;78.78
6032;BME280;3044;43.232;27.972;2023-05-18T04:44:06;45056.69;;;-143.84;77.91
6032;BME280;3044;43.232;27.972;2023-05-18T04:46:34;45077.63;;;-143.84;77.46
6032;BME280;3044;43.232;27.972;2023-05-18T04:49:04;45073.81;;;-143.84;77.31
6032;BME280;3044;43.232;27.972;2023-05-18T04:51:32;45073.81;;;-143.84;77.08
6032;BME280;3044;43.232;27.972;2023-05-18T04:54:01;45079.53;;;-143.84;76.54
6032;BME280;3044;43.232;27.972;2023-05-18T04:56:28;45064.31;;;-143.84;76.64
6032;BME280;3044;43.232;27.972;2023-05-18T04:58:55;45075.72;;;-143.84;76.49
6032;BME280;3044;43.232;27.972;2023-05-18T05:01:24;45079.53;;;-143.84;76.19
6032;BME280;3044;43.232;27.972;2023-05-18T05:03:51;45068.13;;;-143.84;76.20
6032;BME280;3044;43.232;27.972;2023-05-18T05:06:18;45068.13;;;-143.84;75.69
6032;BME280;3044;43.232;27.972;2023-05-18T05:08:47;45066.22;;;-143.84;75.35
6032;BME280;3044;43.232;27.972;2023-05-18T05:11:14;45090.97;;;-143.84;75.09
6032;BME280;3044;43.232;27.972;2023-05-18T05:13:41;45096.66;;;-143.84;74.84
6032;BME280;3044;43.232;27.972;2023-05-18T05:16:08;45089.06;;;-143.84;74.65
6032;BME280;3044;43.232;27.972;2023-05-18T05:18:35;45098.56;;;-143.84;74.55
6032;BME280;3044;43.232;27.972;2023-05-18T05:21:02;45089.06;;;-143.84;74.77
6032;BME280;3044;43.232;27.972;2023-05-18T05:23:31;45110.00;;;-143.84;74.33
6032;BME280;3044;43.232;27.972;2023-05-18T05:25:59;45104.28;;;-143.84;74.03
6032;BME280;3044;43.232;27.972;2023-05-18T05:28:26;45106.19;;;-143.84;74.27
6032;BME280;3044;43.232;27.972;2023-05-18T05:30:53;45081.44;;;-143.84;74.61
6032;BME280;3044;43.232;27.972;2023-05-18T05:33:20;45094.78;;;-143.84;74.56
6032;BME280;3044;43.232;27.972;2023-05-18T05:35:47;45085.25;;;-143.84;74.15
6032;BME280;3044;43.232;27.972;2023-05-18T05:38:15;45102.38;;;-143.84;74.16
6032;BME280;3044;43.232;27.972;2023-05-18T05:40:42;45081.44;;;-143.84;74.70
6032;BME280;3044;43.232;27.972;2023-05-18T05:43:10;45075.72;;;-143.84;74.73
6032;BME280;3044;43.232;27.972;2023-05-18T05:45:38;45077.63;;;-143.84;74.44
6032;BME280;3044;43.232;27.972;2023-05-18T05:48:05;45079.53;;;-143.84;74.36
6032;BME280;3044;43.232;27.972;2023-05-18T05:50:33;45073.81;;;-143.84;74.69
6032;BME280;3044;43.232;27.972;2023-05-18T05:53:00;45090.97;;;-143.84;74.67
6032;BME280;3044;43.232;27.972;2023-05-18T05:55:27;45073.81;;;-143.84;74.50
6032;BME280;3044;43.232;27.972;2023-05-18T05:57:54;45090.97;;;-143.84;74.61
6032;BME280;3044;43.232;27.972;2023-05-18T06:00:23;45087.16;;;-143.84;74.39
6032;BME280;3044;43.232;27.972;2023-05-18T06:02:52;45094.78;;;-143.84;74.40
6032;BME280;3044;43.232;27.972;2023-05-18T06:05:19;45062.41;;;-143.84;74.60
6032;BME280;3044;43.232;27.972;2023-05-18T06:07:46;45070.00;;;-143.84;74.55
6032;BME280;3044;43.232;27.972;2023-05-18T06:10:13;45058.59;;;-143.84;74.48
6032;BME280;3044;43.232;27.972;2023-05-18T06:12:40;45092.88;;;-143.84;74.42
6032;BME280;3044;43.232;27.972;2023-05-18T06:15:08;45066.22;;;-143.84;75.02
6032;BME280;3044;43.232;27.972;2023-05-18T06:17:37;45064.31;;;-143.84;75.34
6032;BME280;3044;43.232;27.972;2023-05-18T06:20:06;45096.66;;;-143.84;75.46
6032;BME280;3044;43.232;27.972;2023-05-18T06:22:33;45094.78;;;-143.84;75.30
6032;BME280;3044;43.232;27.972;2023-05-18T06:25:00;45100.47;;;-143.84;75.31
6032;BME280;3044;43.232;27.972;2023-05-18T06:27:28;45062.41;;;-143.84;75.50
6032;BME280;3044;43.232;27.972;2023-05-18T06:29:55;45083.34;;;-143.84;75.35
6032;BME280;3044;43.232;27.972;2023-05-18T06:32:22;45073.81;;;-143.84;75.55
6032;BME280;3044;43.232;27.972;2023-05-18T06:34:51;45083.34;;;-143.84;75.50
6032;BME280;3044;43.232;27.972;2023-05-18T06:37:18;45083.34;;;-143.84;75.73
6032;BME280;3044;43.232;27.972;2023-05-18T06:39:45;45047.16;;;-143.84;75.68
6032;BME280;3044;43.232;27.972;2023-05-18T06:42:13;45075.72;;;-143.84;75.86
6032;BME280;3044;43.232;27.972;2023-05-18T06:44:40;45071.91;;;-143.84;75.52
6032;BME280;3044;43.232;27.972;2023-05-18T06:47:07;45062.41;;;-143.84;75.35
6032;BME280;3044;43.232;27.972;2023-05-18T06:49:35;45068.13;;;-143.84;75.07
6032;BME280;3044;43.232;27.972;2023-05-18T06:52:04;45070.00;;;-143.84;74.83
6032;BME280;3044;43.232;27.972;2023-05-18T06:54:32;45096.66;;;-143.84;74.87
6032;BME280;3044;43.232;27.972;2023-05-18T06:56:59;45056.69;;;-143.84;75.07
6032;BME280;3044;43.232;27.972;2023-05-18T06:59:26;45073.81;;;-143.84;74.78
6032;BME280;3044;43.232;27.972;2023-05-18T07:01:53;45087.16;;;-143.84;74.89
6032;BME280;3044;43.232;27.972;2023-05-18T07:04:20;45068.13;;;-143.84;74.43
6032;BME280;3044;43.232;27.972;2023-05-18T07:06:48;45066.22;;;-143.84;72.89
6032;BME280;3044;43.232;27.972;2023-05-18T07:09:17;45110.00;;;-143.84;73.30
6032;BME280;3044;43.232;27.972;2023-05-18T07:11:44;45075.72;;;-143.84;73.27
6032;BME280;3044;43.232;27.972;2023-05-18T07:14:11;45094.78;;;-143.84;73.51
6032;BME280;3044;43.232;27.972;2023-05-18T07:16:38;45083.34;;;-143.84;73.46
6032;BME280;3044;43.232;27.972;2023-05-18T07:19:06;45098.56;;;-143.84;73.19
6032;BME280;3044;43.232;27.972;2023-05-18T07:21:33;45087.16;;;-143.84;73.25
6032;BME280;3044;43.232;27.972;2023-05-18T07:24:00;45075.72;;;-143.84;73.79
6032;BME280;3044;43.232;27.972;2023-05-18T07:26:28;45094.78;;;-143.84;74.26
6032;BME280;3044;43.232;27.972;2023-05-18T07:28:57;45054.78;;;-143.84;75.08
6032;BME280;3044;43.232;27.972;2023-05-18T07:31:25;45049.06;;;-143.84;75.93
6032;BME280;3044;43.232;27.972;2023-05-18T07:33:52;45030.03;;;-143.84;77.90
6032;BME280;3044;43.232;27.972;2023-05-18T07:36:19;45009.09;;;-143.84;79.76
6032;BME280;3044;43.232;27.972;2023-05-18T07:38:46;44957.66;;;-143.84;80.44
6032;BME280;3044;43.232;27.972;2023-05-18T07:41:17;44967.19;;;-143.84;81.15
6032;BME280;3044;43.232;27.972;2023-05-18T07:43:46;44879.59;;;-143.84;81.89
6032;BME280;3044;43.232;27.972;2023-05-18T07:46:13;44828.19;;;-143.84;82.69
6032;BME280;3044;43.232;27.972;2023-05-18T07:48:40;44856.75;;;-143.84;82.75
6032;BME280;3044;43.232;27.972;2023-05-18T07:51:07;44835.81;;;-143.84;82.90
6032;BME280;3044;43.232;27.972;2023-05-18T07:53:34;44780.59;;;-143.84;83.63
6032;BME280;3044;43.232;27.972;2023-05-18T07:56:02;44729.19;;;-143.84;83.94
6032;BME280;3044;43.232;27.972;2023-05-18T07:58:30;44763.47;;;-143.84;83.94
6032;BME280;3044;43.232;27.972;2023-05-18T08:00:58;44679.69;;;-143.84;84.19
6032;BME280;3044;43.232;27.972;2023-05-18T08:03:25;44666.34;;;-143.84;84.06
6032;BME280;3044;43.232;27.972;2023-05-18T08:05:52;44744.41;;;-143.84;83.88
6032;BME280;3044;43.232;27.972;2023-05-18T08:08:20;44755.84;;;-143.84;83.75
6032;BME280;3044;43.232;27.972;2023-05-18T08:10:47;44782.50;;;-143.84;83.26
6032;BME280;3044;43.232;27.972;2023-05-18T08:13:14;44797.72;;;-143.84;83.26
6032;BME280;3044;43.232;27.972;2023-05-18T08:15:42;44843.44;;;-143.84;82.64
6032;BME280;3044;43.232;27.972;2023-05-18T08:18:10;44900.53;;;-143.84;81.87
6032;BME280;3044;43.232;27.972;2023-05-18T08:20:38;44915.78;;;-143.84;81.86
6032;BME280;3044;43.232;27.972;2023-05-18T08:23:05;44917.69;;;-143.84;81.86
6032;BME280;3044;43.232;27.972;2023-05-18T08:25:32;44948.16;;;-143.84;81.19
6032;BME280;3044;43.232;27.972;2023-05-18T08:27:59;44940.53;;;-143.84;81.14
6032;BME280;3044;43.232;27.972;2023-05-18T08:30:26;44910.06;;;-143.84;81.50
6032;BME280;3044;43.232;27.972;2023-05-18T08:32:53;44921.50;;;-143.84;81.55
6032;BME280;3044;43.232;27.972;2023-05-18T08:35:22;44967.19;;;-143.84;80.82
6032;BME280;3044;43.232;27.972;2023-05-18T08:37:51;44951.97;;;-143.84;80.84
6032;BME280;3044;43.232;27.972;2023-05-18T08:40:18;44957.66;;;-143.84;80.82
6032;BME280;3044;43.232;27.972;2023-05-18T08:42:50;44959.56;;;-143.84;80.82
6032;BME280;3044;43.232;27.972;2023-05-18T08:45:22;44997.66;;;-143.84;80.59
6032;BME280;3044;43.232;27.972;2023-05-18T08:47:51;44929.09;;;-143.84;81.16
6032;BME280;3044;43.232;27.972;2023-05-18T08:50:25;44921.50;;;-143.84;81.18
6032;BME280;3044;43.232;27.972;2023-05-18T08:52:54;44938.63;;;-143.84;80.79
6032;BME280;3044;43.232;27.972;2023-05-18T08:55:22;44929.09;;;-143.84;81.11
6032;BME280;3044;43.232;27.972;2023-05-18T08:57:53;44934.81;;;-143.84;81.30
6032;BME280;3044;43.232;27.972;2023-05-18T09:00:21;44915.78;;;-143.84;81.35
6032;BME280;3044;43.232;27.972;2023-05-18T09:02:49;44910.06;;;-143.84;81.53
6032;BME280;3044;43.232;27.972;2023-05-18T09:05:17;44917.69;;;-143.84;81.46
6032;BME280;3044;43.232;27.972;2023-05-18T09:07:46;44927.19;;;-143.84;81.14
6032;BME280;3044;43.232;27.972;2023-05-18T09:10:13;44980.53;;;-143.84;80.57
6032;BME280;3044;43.232;27.972;2023-05-18T09:12:42;44988.13;;;-143.84;80.50
6032;BME280;3044;43.232;27.972;2023-05-18T09:15:12;44959.56;;;-143.84;80.80
6032;BME280;3044;43.232;27.972;2023-05-18T09:17:42;44948.16;;;-143.84;80.66
6032;BME280;3044;43.232;27.972;2023-05-18T09:20:09;44988.13;;;-143.84;79.87
6032;BME280;3044;43.232;27.972;2023-05-18T09:22:38;45024.31;;;-143.84;78.45
6032;BME280;3044;43.232;27.972;2023-05-18T09:25:09;44980.53;;;-143.84;77.92
6032;BME280;3044;43.232;27.972;2023-05-18T09:27:36;45014.78;;;-143.84;77.93
6032;BME280;3044;43.232;27.972;2023-05-18T09:30:09;45039.53;;;-143.84;77.40
6032;BME280;3044;43.232;27.972;2023-05-18T09:32:36;45024.31;;;-143.84;77.35
6032;BME280;3044;43.232;27.972;2023-05-18T09:35:07;45010.97;;;-143.84;78.03
6032;BME280;3044;43.232;27.972;2023-05-18T09:37:34;45037.66;;;-143.84;78.18
6032;BME280;3044;43.232;27.972;2023-05-18T09:40:03;45012.88;;;-143.84;77.88
6032;BME280;3044;43.232;27.972;2023-05-18T09:42:36;45001.47;;;-143.84;77.36
6032;BME280;3044;43.232;27.972;2023-05-18T09:45:17;45024.31;;;-143.84;77.37
6032;BME280;3044;43.232;27.972;2023-05-18T09:47:44;45031.94;;;-143.84;77.59
6032;BME280;3044;43.232;27.972;2023-05-18T09:50:11;45039.53;;;-143.84;77.71
6032;BME280;3044;43.232;27.972;2023-05-18T09:52:42;45028.13;;;-143.84;77.28
6032;BME280;3044;43.232;27.972;2023-05-18T09:55:09;45037.66;;;-143.84;76.74
6032;BME280;3044;43.232;27.972;2023-05-18T09:57:42;45041.44;;;-143.84;75.52
6032;BME280;3044;43.232;27.972;2023-05-18T10:00:11;45049.06;;;-143.84;74.70
6032;BME280;3044;43.232;27.972;2023-05-18T10:02:39;45075.72;;;-143.84;73.98
6032;BME280;3044;43.232;27.972;2023-05-18T10:05:17;45039.53;;;-143.84;73.29
6032;BME280;3044;43.232;27.972;2023-05-18T10:07:45;45037.66;;;-143.84;72.48
6032;BME280;3044;43.232;27.972;2023-05-18T10:10:16;45081.44;;;-143.84;71.20
6032;BME280;3044;43.232;27.972;2023-05-18T10:12:45;45104.28;;;-143.84;70.94
6032;BME280;3044;43.232;27.972;2023-05-18T10:15:14;45087.16;;;-143.84;71.05
6032;BME280;3044;43.232;27.972;2023-05-18T10:17:42;45071.91;;;-143.84;71.37
6032;BME280;3044;43.232;27.972;2023-05-18T10:20:11;45083.34;;;-143.84;71.38
6032;BME280;3044;43.232;27.972;2023-05-18T10:22:41;45071.91;;;-143.84;71.89
6032;BME280;3044;43.232;27.972;2023-05-18T10:25:11;45070.00;;;-143.84;70.74
6032;BME280;3044;43.232;27.972;2023-05-18T10:27:40;45075.72;;;-143.84;69.54
6032;BME280;3044;43.232;27.972;2023-05-18T10:30:13;45096.66;;;-143.84;70.29
6032;BME280;3044;43.232;27.972;2023-05-18T10:32:42;45094.78;;;-143.84;70.45
6032;BME280;3044;43.232;27.972;2023-05-18T10:35:10;45071.91;;;-143.84;69.59
6032;BME280;3044;43.232;27.972;2023-05-18T10:37:42;45056.69;;;-143.84;69.37
6032;BME280;3044;43.232;27.972;2023-05-18T10:40:12;45094.78;;;-143.84;69.98
6032;BME280;3044;43.232;27.972;2023-05-18T10:42:40;45079.53;;;-143.84;70.49
6032;BME280;3044;43.232;27.972;2023-05-18T10:45:09;45089.06;;;-143.84;70.01
6032;BME280;3044;43.232;27.972;2023-05-18T10:47:39;45071.91;;;-143.84;69.40
6032;BME280;3044;43.232;27.972;2023-05-18T10:50:08;45064.31;;;-143.84;69.48
6032;BME280;3044;43.232;27.972;2023-05-18T10:52:36;45100.47;;;-143.84;69.34
6032;BME280;3044;43.232;27.972;2023-05-18T10:55:04;45087.16;;;-143.84;69.85
6032;BME280;3044;43.232;27.972;2023-05-18T10:57:35;45083.34;;;-143.84;69.21
6032;BME280;3044;43.232;27.972;2023-05-18T11:00:05;45071.91;;;-143.84;69.63
6032;BME280;3044;43.232;27.972;2023-05-18T11:02:34;45089.06;;;-143.84;70.20
6032;BME280;3044;43.232;27.972;2023-05-18T11:05:06;45087.16;;;-143.84;71.38
6032;BME280;3044;43.232;27.972;2023-05-18T11:07:34;45066.22;;;-143.84;70.29
6032;BME280;3044;43.232;27.972;2023-05-18T11:10:02;45050.97;;;-143.84;69.00
6032;BME280;3044;43.232;27.972;2023-05-18T11:12:35;45081.44;;;-143.84;68.15
6032;BME280;3044;43.232;27.972;2023-05-18T11:15:04;45075.72;;;-143.84;68.42
6032;BME280;3044;43.232;27.972;2023-05-18T11:17:31;45083.34;;;-143.84;68.79
6032;BME280;3044;43.232;27.972;2023-05-18T11:20:13;45068.13;;;-143.84;68.82
6032;BME280;3044;43.232;27.972;2023-05-18T11:22:45;45062.41;;;-143.84;68.90
6032;BME280;3044;43.232;27.972;2023-05-18T11:25:43;45081.44;;;-143.84;70.01
6032;BME280;3044;43.232;27.972;2023-05-18T11:28:11;45083.34;;;-143.84;68.07
6032;BME280;3044;43.232;27.972;2023-05-18T11:30:49;45071.91;;;-143.84;69.82
6032;BME280;3044;43.232;27.972;2023-05-18T11:33:27;45066.22;;;-143.84;69.69
6032;BME280;3044;43.232;27.972;2023-05-18T11:36:00;45075.72;;;-143.84;68.47
6032;BME280;3044;43.232;27.972;2023-05-18T11:38:51;45052.88;;;-143.84;67.49
6032;BME280;3044;43.232;27.972;2023-05-18T11:41:36;45070.00;;;-143.84;67.60
6032;BME280;3044;43.232;27.972;2023-05-18T11:44:16;45094.78;;;-143.84;67.92
6032;BME280;3044;43.232;27.972;2023-05-18T11:47:00;45045.25;;;-143.84;67.17
6032;BME280;3044;43.232;27.972;2023-05-18T11:49:30;45070.00;;;-143.84;68.36
6032;BME280;3044;43.232;27.972;2023-05-18T11:52:04;45066.22;;;-143.84;68.86
6032;BME280;3044;43.232;27.972;2023-05-18T11:54:39;45075.72;;;-143.84;68.20
6032;BME280;3044;43.232;27.972;2023-05-18T11:57:07;45113.81;;;-143.84;69.45
6032;BME280;3044;43.232;27.972;2023-05-18T11:59:37;45050.97;;;-143.84;74.41
6032;BME280;3044;43.232;27.972;2023-05-18T12:02:05;45009.09;;;-143.84;77.90
6032;BME280;3044;43.232;27.972;2023-05-18T12:04:35;44965.28;;;-143.84;78.91
6032;BME280;3044;43.232;27.972;2023-05-18T12:07:09;44959.56;;;-143.84;79.71
6032;BME280;3044;43.232;27.972;2023-05-18T12:09:39;44969.09;;;-143.84;80.25
6032;BME280;3044;43.232;27.972;2023-05-18T12:12:08;44927.19;;;-143.84;81.04
6032;BME280;3044;43.232;27.972;2023-05-18T12:14:37;44902.44;;;-143.84;81.15
6032;BME280;3044;43.232;27.972;2023-05-18T12:17:05;44959.56;;;-143.84;80.82
6032;BME280;3044;43.232;27.972;2023-05-18T12:19:37;44948.16;;;-143.84;80.89
6032;BME280;3044;43.232;27.972;2023-05-18T12:22:09;44894.84;;;-143.84;81.25
6032;BME280;3044;43.232;27.972;2023-05-18T12:24:37;44938.63;;;-143.84;80.88
6032;BME280;3044;43.232;27.972;2023-05-18T12:27:05;44934.81;;;-143.84;80.33
6032;BME280;3044;43.232;27.972;2023-05-18T12:29:33;44868.19;;;-143.84;82.22
6032;BME280;3044;43.232;27.972;2023-05-18T12:32:05;44915.78;;;-143.84;80.67
6032;BME280;3044;43.232;27.972;2023-05-18T12:34:32;45037.66;;;-143.84;77.27
6032;BME280;3044;43.232;27.972;2023-05-18T12:37:00;44978.63;;;-143.84;78.98
6032;BME280;3044;43.232;27.972;2023-05-18T12:39:28;44993.84;;;-143.84;78.86
6032;BME280;3044;43.232;27.972;2023-05-18T12:42:08;44997.66;;;-143.84;79.24
6032;BME280;3044;43.232;27.972;2023-05-18T12:44:35;44976.72;;;-143.84;79.71
6032;BME280;3044;43.232;27.972;2023-05-18T12:47:03;45030.03;;;-143.84;78.28
6032;BME280;3044;43.232;27.972;2023-05-18T12:49:35;45009.09;;;-143.84;78.48
6032;BME280;3044;43.232;27.972;2023-05-18T12:52:08;45020.50;;;-143.84;78.05
6032;BME280;3044;43.232;27.972;2023-05-18T12:54:47;45007.19;;;-143.84;78.46
6032;BME280;3044;43.232;27.972;2023-05-18T12:57:20;45005.28;;;-143.84;76.43
6032;BME280;3044;43.232;27.972;2023-05-18T12:59:50;45054.78;;;-143.84;75.09